Redhead, Trinidad And Tobago

10:08 PM AST on December 07, 2016 (GMT -0400)
Scarborough | | Change Station

Elev 26 ft 11.15 °N, 60.84 °W | Updated 8 minutes ago

Partly Cloudy
Partly Cloudy
81 °F
Feels Like 85 °F
N
6
Wind Variable Wind from ENE

Today
High -- | Low -- °F
--% Chance of Precip.
Yesterday
High -- | Low -- °F
Precip. -- in
Pressure 29.92 in
Visibility 6.2 miles
Clouds Few 1600 ft
Heat Index 85 °F
Dew Point 73 °F
Humidity 79%
Rainfall 0.00 in
Snow Depth Not available.
6:10 AM 5:41 PM
First Quarter, 58% visible
METAR TTCP 080200Z 07005KT 9999 FEW016 27/23 Q1013 NOSIG
Pressure 29.92 in
Visibility 6.2 miles
Clouds Few 1600 ft
Heat Index 85 °F
Dew Point 73 °F
Humidity 79%
Rainfall 0.00 in
Snow Depth Not available.
6:10 AM 5:41 PM
First Quarter, 58% visible
METAR TTCP 080200Z 07005KT 9999 FEW016 27/23 Q1013 NOSIG

10-Day Weather Forecast

No radar image for this location.
×

Almanac

Astronomy

Dec. 07, 2016 Rise Set
Actual Time
Civil Twilight
Nautical Twilight
Astronomical Twilight
Moon
Length of Visible Light
Length of Day
Tomorrow will be .
, % of the Moon is Illuminated

Today's Extremes

Country Highs Country Lows

Community

WunderPhotos

Upload Photos

1,956,259 photos uploaded!

WunderBlog® & News

Nearby

Air Quality

  Air Quality AQ Index Pollutant
Not available.

Snow Depth

Station Depth Elevation

Earthquake Activity

City Distance Mag. Time & Date
Minimum magnitude displayed is 2.5.

Coastal Water Temperatures

Place Temperature

Stations

Nearby Weather Stations

Station Location Temp. Windchill Dew Point Humidity Wind Precip. Elev Updated Type